sensor_id;sensor_type;location;lat;lon;timestamp;temperature;humidity
71396;DHT22;59888;55.814;37.132;2022-08-19T00:01:28;24.78;32.28
71396;DHT22;59888;55.814;37.132;2022-08-19T00:03:59;24.79;32.67
71396;DHT22;59888;55.814;37.132;2022-08-19T00:06:27;24.87;32.45
71396;DHT22;59888;55.814;37.132;2022-08-19T00:08:53;24.92;32.02
71396;DHT22;59888;55.814;37.132;2022-08-19T00:11:19;24.93;31.71
71396;DHT22;59888;55.814;37.132;2022-08-19T00:13:45;24.93;32.05
71396;DHT22;59888;55.814;37.132;2022-08-19T00:16:15;24.95;32.15
71396;DHT22;59888;55.814;37.132;2022-08-19T00:18:41;24.98;32.04
71396;DHT22;59888;55.814;37.132;2022-08-19T00:21:07;24.99;32.02
71396;DHT22;59888;55.814;37.132;2022-08-19T00:23:33;24.99;32.02
71396;DHT22;59888;55.814;37.132;2022-08-19T00:26:00;25.01;32.03
71396;DHT22;59888;55.814;37.132;2022-08-19T00:28:26;25.00;32.10
71396;DHT22;59888;55.814;37.132;2022-08-19T00:30:52;25.03;31.95
71396;DHT22;59888;55.814;37.132;2022-08-19T00:33:19;25.04;31.83
71396;DHT22;59888;55.814;37.132;2022-08-19T00:35:45;25.03;31.86
71396;DHT22;59888;55.814;37.132;2022-08-19T00:38:11;25.03;32.02
71396;DHT22;59888;55.814;37.132;2022-08-19T00:40:37;25.05;31.86
71396;DHT22;59888;55.814;37.132;2022-08-19T00:43:10;25.01;32.48
71396;DHT22;59888;55.814;37.132;2022-08-19T00:45:39;24.98;32.25
71396;DHT22;59888;55.814;37.132;2022-08-19T00:48:08;24.97;32.11
71396;DHT22;59888;55.814;37.132;2022-08-19T00:50:34;24.92;32.42
71396;DHT22;59888;55.814;37.132;2022-08-19T00:53:02;24.95;32.55
71396;DHT22;59888;55.814;37.132;2022-08-19T00:55:31;24.94;32.61
71396;DHT22;59888;55.814;37.132;2022-08-19T00:58:11;24.93;33.56
71396;DHT22;59888;55.814;37.132;2022-08-19T01:00:38;24.92;32.73
71396;DHT22;59888;55.814;37.132;2022-08-19T01:03:10;24.90;33.33
71396;DHT22;59888;55.814;37.132;2022-08-19T01:05:37;24.88;33.10
71396;DHT22;59888;55.814;37.132;2022-08-19T01:08:06;24.88;32.89
71396;DHT22;59888;55.814;37.132;2022-08-19T01:10:40;24.88;33.57
71396;DHT22;59888;55.814;37.132;2022-08-19T01:13:07;24.85;33.15
71396;DHT22;59888;55.814;37.132;2022-08-19T01:15:40;24.86;33.20
71396;DHT22;59888;55.814;37.132;2022-08-19T01:18:11;24.85;33.49
71396;DHT22;59888;55.814;37.132;2022-08-19T01:20:39;24.85;33.48
71396;DHT22;59888;55.814;37.132;2022-08-19T01:23:05;24.74;33.32
71396;DHT22;59888;55.814;37.132;2022-08-19T01:25:36;24.70;33.76
71396;DHT22;59888;55.814;37.132;2022-08-19T01:28:04;24.65;33.53
71396;DHT22;59888;55.814;37.132;2022-08-19T01:30:33;24.66;34.08
71396;DHT22;59888;55.814;37.132;2022-08-19T01:33:01;24.63;33.64
71396;DHT22;59888;55.814;37.132;2022-08-19T01:35:29;24.61;33.89
71396;DHT22;59888;55.814;37.132;2022-08-19T01:38:01;24.56;34.44
71396;DHT22;59888;55.814;37.132;2022-08-19T01:40:30;24.59;33.87
71396;DHT22;59888;55.814;37.132;2022-08-19T01:42:58;24.51;33.68
71396;DHT22;59888;55.814;37.132;2022-08-19T01:45:27;24.48;33.28
71396;DHT22;59888;55.814;37.132;2022-08-19T01:47:54;24.47;33.99
71396;DHT22;59888;55.814;37.132;2022-08-19T01:50:21;24.45;33.99
71396;DHT22;59888;55.814;37.132;2022-08-19T01:52:47;24.45;33.56
71396;DHT22;59888;55.814;37.132;2022-08-19T01:55:16;24.43;34.06
71396;DHT22;59888;55.814;37.132;2022-08-19T01:57:47;24.38;34.15
71396;DHT22;59888;55.814;37.132;2022-08-19T02:00:16;24.32;34.49
71396;DHT22;59888;55.814;37.132;2022-08-19T02:02:43;24.35;34.20
71396;DHT22;59888;55.814;37.132;2022-08-19T02:05:09;24.33;34.16
71396;DHT22;59888;55.814;37.132;2022-08-19T02:07:36;24.30;34.41
71396;DHT22;59888;55.814;37.132;2022-08-19T02:10:09;24.30;35.37
71396;DHT22;59888;55.814;37.132;2022-08-19T02:12:36;24.31;34.57
71396;DHT22;59888;55.814;37.132;2022-08-19T02:15:03;24.24;34.78
71396;DHT22;59888;55.814;37.132;2022-08-19T02:17:29;24.17;34.92
71396;DHT22;59888;55.814;37.132;2022-08-19T02:19:56;24.14;34.82
71396;DHT22;59888;55.814;37.132;2022-08-19T02:22:23;24.06;35.08
71396;DHT22;59888;55.814;37.132;2022-08-19T02:24:54;24.03;35.56
71396;DHT22;59888;55.814;37.132;2022-08-19T02:27:22;23.98;35.46
71396;DHT22;59888;55.814;37.132;2022-08-19T02:29:49;23.97;35.56
71396;DHT22;59888;55.814;37.132;2022-08-19T02:32:16;23.91;35.86
71396;DHT22;59888;55.814;37.132;2022-08-19T02:34:44;23.88;35.51
71396;DHT22;59888;55.814;37.132;2022-08-19T02:37:10;23.85;35.73
71396;DHT22;59888;55.814;37.132;2022-08-19T02:39:56;23.79;35.80
71396;DHT22;59888;55.814;37.132;2022-08-19T02:42:22;23.76;35.60
71396;DHT22;59888;55.814;37.132;2022-08-19T02:44:47;23.80;35.56
71396;DHT22;59888;55.814;37.132;2022-08-19T02:47:13;23.83;35.85
71396;DHT22;59888;55.814;37.132;2022-08-19T02:49:41;23.85;35.72
71396;DHT22;59888;55.814;37.132;2022-08-19T02:52:07;23.87;35.75
71396;DHT22;59888;55.814;37.132;2022-08-19T02:54:33;23.86;35.74
71396;DHT22;59888;55.814;37.132;2022-08-19T02:56:59;23.89;35.92
71396;DHT22;59888;55.814;37.132;2022-08-19T02:59:25;23.88;35.90
71396;DHT22;59888;55.814;37.132;2022-08-19T03:01:51;23.92;35.49
71396;DHT22;59888;55.814;37.132;2022-08-19T03:04:18;23.90;36.03
71396;DHT22;59888;55.814;37.132;2022-08-19T03:06:47;23.88;36.19
71396;DHT22;59888;55.814;37.132;2022-08-19T03:09:14;23.85;36.08
71396;DHT22;59888;55.814;37.132;2022-08-19T03:11:40;23.86;35.98
71396;DHT22;59888;55.814;37.132;2022-08-19T03:14:07;23.87;36.00
71396;DHT22;59888;55.814;37.132;2022-08-19T03:16:42;23.89;36.18
71396;DHT22;59888;55.814;37.132;2022-08-19T03:19:08;23.94;36.07
71396;DHT22;59888;55.814;37.132;2022-08-19T03:21:34;23.99;35.84
71396;DHT22;59888;55.814;37.132;2022-08-19T03:24:03;23.96;35.82
71396;DHT22;59888;55.814;37.132;2022-08-19T03:26:30;23.98;35.84
71396;DHT22;59888;55.814;37.132;2022-08-19T03:28:56;24.01;35.88
71396;DHT22;59888;55.814;37.132;2022-08-19T03:31:22;24.01;35.98
71396;DHT22;59888;55.814;37.132;2022-08-19T03:33:50;24.01;36.18
71396;DHT22;59888;55.814;37.132;2022-08-19T03:36:20;24.04;36.21
71396;DHT22;59888;55.814;37.132;2022-08-19T03:38:50;24.09;36.19
71396;DHT22;59888;55.814;37.132;2022-08-19T03:41:22;24.10;36.10
71396;DHT22;59888;55.814;37.132;2022-08-19T03:43:49;24.10;35.88
71396;DHT22;59888;55.814;37.132;2022-08-19T03:46:17;24.17;35.93
71396;DHT22;59888;55.814;37.132;2022-08-19T03:48:47;24.21;35.68
71396;DHT22;59888;55.814;37.132;2022-08-19T03:51:18;24.15;36.22
71396;DHT22;59888;55.814;37.132;2022-08-19T03:53:45;24.16;36.44
71396;DHT22;59888;55.814;37.132;2022-08-19T03:56:12;24.19;35.72
71396;DHT22;59888;55.814;37.132;2022-08-19T03:58:39;24.24;35.60
71396;DHT22;59888;55.814;37.132;2022-08-19T04:01:10;24.31;36.09
71396;DHT22;59888;55.814;37.132;2022-08-19T04:03:36;24.38;35.57
71396;DHT22;59888;55.814;37.132;2022-08-19T04:06:24;24.43;36.04
71396;DHT22;59888;55.814;37.132;2022-08-19T04:08:51;24.44;35.40
71396;DHT22;59888;55.814;37.132;2022-08-19T04:11:25;24.46;36.66
71396;DHT22;59888;55.814;37.132;2022-08-19T04:13:52;24.49;35.50
71396;DHT22;59888;55.814;37.132;2022-08-19T04:16:20;24.58;35.70
71396;DHT22;59888;55.814;37.132;2022-08-19T04:18:47;24.66;35.53
71396;DHT22;59888;55.814;37.132;2022-08-19T04:21:18;24.72;35.91
71396;DHT22;59888;55.814;37.132;2022-08-19T04:23:45;24.80;35.18
71396;DHT22;59888;55.814;37.132;2022-08-19T04:26:15;24.92;35.53
71396;DHT22;59888;55.814;37.132;2022-08-19T04:28:43;25.02;35.22
71396;DHT22;59888;55.814;37.132;2022-08-19T04:31:16;25.00;35.50
71396;DHT22;59888;55.814;37.132;2022-08-19T04:33:43;25.04;35.04
71396;DHT22;59888;55.814;37.132;2022-08-19T04:36:21;25.09;35.55
71396;DHT22;59888;55.814;37.132;2022-08-19T04:38:48;25.18;34.93
71396;DHT22;59888;55.814;37.132;2022-08-19T04:41:14;25.23;34.95
71396;DHT22;59888;55.814;37.132;2022-08-19T04:43:59;25.22;34.79
71396;DHT22;59888;55.814;37.132;2022-08-19T04:46:25;25.23;34.66
71396;DHT22;59888;55.814;37.132;2022-08-19T04:48:51;25.27;34.70
71396;DHT22;59888;55.814;37.132;2022-08-19T04:51:18;25.29;34.74
71396;DHT22;59888;55.814;37.132;2022-08-19T04:53:46;25.40;34.79
71396;DHT22;59888;55.814;37.132;2022-08-19T04:56:16;25.49;35.08
71396;DHT22;59888;55.814;37.132;2022-08-19T04:58:44;25.50;34.74
71396;DHT22;59888;55.814;37.132;2022-08-19T05:01:17;25.51;34.98
71396;DHT22;59888;55.814;37.132;2022-08-19T05:03:43;25.56;34.47
71396;DHT22;59888;55.814;37.132;2022-08-19T05:06:11;25.62;34.30
71396;DHT22;59888;55.814;37.132;2022-08-19T05:08:40;25.63;34.34
71396;DHT22;59888;55.814;37.132;2022-08-19T05:11:24;25.69;34.68
71396;DHT22;59888;55.814;37.132;2022-08-19T05:13:50;25.79;34.13
71396;DHT22;59888;55.814;37.132;2022-08-19T05:16:19;25.83;34.29
71396;DHT22;59888;55.814;37.132;2022-08-19T05:18:45;25.86;34.07
71396;DHT22;59888;55.814;37.132;2022-08-19T05:21:30;25.93;33.51
71396;DHT22;59888;55.814;37.132;2022-08-19T05:24:16;25.99;33.69
71396;DHT22;59888;55.814;37.132;2022-08-19T05:26:45;26.08;33.84
71396;DHT22;59888;55.814;37.132;2022-08-19T05:29:16;26.13;33.78
71396;DHT22;59888;55.814;37.132;2022-08-19T05:31:43;26.19;33.79
71396;DHT22;59888;55.814;37.132;2022-08-19T05:34:09;26.26;33.58
71396;DHT22;59888;55.814;37.132;2022-08-19T05:36:40;26.36;33.83
71396;DHT22;59888;55.814;37.132;2022-08-19T05:39:12;26.48;33.49
71396;DHT22;59888;55.814;37.132;2022-08-19T05:41:47;26.56;33.63
71396;DHT22;59888;55.814;37.132;2022-08-19T05:44:13;26.60;33.92
71396;DHT22;59888;55.814;37.132;2022-08-19T05:46:39;26.61;33.13
71396;DHT22;59888;55.814;37.132;2022-08-19T05:49:06;26.68;33.02
71396;DHT22;59888;55.814;37.132;2022-08-19T05:51:34;26.75;33.19
71396;DHT22;59888;55.814;37.132;2022-08-19T05:54:01;26.81;32.96
71396;DHT22;59888;55.814;37.132;2022-08-19T05:56:27;26.87;32.85
71396;DHT22;59888;55.814;37.132;2022-08-19T05:58:53;26.95;32.98
71396;DHT22;59888;55.814;37.132;2022-08-19T06:01:19;26.97;32.94
71396;DHT22;59888;55.814;37.132;2022-08-19T06:03:46;27.00;32.70
71396;DHT22;59888;55.814;37.132;2022-08-19T06:06:15;26.98;32.63
71396;DHT22;59888;55.814;37.132;2022-08-19T06:08:41;27.00;32.67
71396;DHT22;59888;55.814;37.132;2022-08-19T06:11:33;27.06;33.22
71396;DHT22;59888;55.814;37.132;2022-08-19T06:14:02;27.08;32.80
71396;DHT22;59888;55.814;37.132;2022-08-19T06:16:29;27.11;32.74
71396;DHT22;59888;55.814;37.132;2022-08-19T06:18:59;27.14;32.96
71396;DHT22;59888;55.814;37.132;2022-08-19T06:21:27;27.23;32.79
71396;DHT22;59888;55.814;37.132;2022-08-19T06:23:54;27.31;32.55
71396;DHT22;59888;55.814;37.132;2022-08-19T06:26:21;27.39;32.42
71396;DHT22;59888;55.814;37.132;2022-08-19T06:28:48;27.46;32.44
71396;DHT22;59888;55.814;37.132;2022-08-19T06:31:16;27.52;32.44
71396;DHT22;59888;55.814;37.132;2022-08-19T06:33:43;27.54;32.41
71396;DHT22;59888;55.814;37.132;2022-08-19T06:36:28;27.64;32.71
71396;DHT22;59888;55.814;37.132;2022-08-19T06:39:09;27.71;32.51
71396;DHT22;59888;55.814;37.132;2022-08-19T06:41:37;27.75;32.11
71396;DHT22;59888;55.814;37.132;2022-08-19T06:44:04;27.78;32.09
71396;DHT22;59888;55.814;37.132;2022-08-19T06:46:30;27.85;31.93
71396;DHT22;59888;55.814;37.132;2022-08-19T06:48:57;27.82;31.99
71396;DHT22;59888;55.814;37.132;2022-08-19T06:51:24;27.87;32.03
71396;DHT22;59888;55.814;37.132;2022-08-19T06:53:52;27.89;32.22
71396;DHT22;59888;55.814;37.132;2022-08-19T06:56:22;27.97;32.09
71396;DHT22;59888;55.814;37.132;2022-08-19T06:58:50;28.02;31.83
71396;DHT22;59888;55.814;37.132;2022-08-19T07:01:19;28.09;31.83
71396;DHT22;59888;55.814;37.132;2022-08-19T07:03:46;28.13;31.99
71396;DHT22;59888;55.814;37.132;2022-08-19T07:06:15;28.18;31.99
71396;DHT22;59888;55.814;37.132;2022-08-19T07:08:47;28.17;32.12
71396;DHT22;59888;55.814;37.132;2022-08-19T07:11:15;28.14;32.02
71396;DHT22;59888;55.814;37.132;2022-08-19T07:13:43;28.14;32.16
71396;DHT22;59888;55.814;37.132;2022-08-19T07:16:13;28.14;32.10
71396;DHT22;59888;55.814;37.132;2022-08-19T07:18:39;28.14;32.12
71396;DHT22;59888;55.814;37.132;2022-08-19T07:21:14;28.18;32.24
71396;DHT22;59888;55.814;37.132;2022-08-19T07:23:41;28.24;32.09
71396;DHT22;59888;55.814;37.132;2022-08-19T07:26:18;28.28;32.30
71396;DHT22;59888;55.814;37.132;2022-08-19T07:28:46;28.32;31.98
71396;DHT22;59888;55.814;37.132;2022-08-19T07:31:18;28.34;32.00
71396;DHT22;59888;55.814;37.132;2022-08-19T07:33:45;28.41;31.83
71396;DHT22;59888;55.814;37.132;2022-08-19T07:36:13;28.45;31.92
71396;DHT22;59888;55.814;37.132;2022-08-19T07:38:45;28.50;32.22
71396;DHT22;59888;55.814;37.132;2022-08-19T07:41:16;28.58;31.77
71396;DHT22;59888;55.814;37.132;2022-08-19T07:43:42;28.65;31.58
71396;DHT22;59888;55.814;37.132;2022-08-19T07:46:09;28.73;31.56
71396;DHT22;59888;55.814;37.132;2022-08-19T07:48:37;28.80;31.51
71396;DHT22;59888;55.814;37.132;2022-08-19T07:51:05;28.87;31.51
71396;DHT22;59888;55.814;37.132;2022-08-19T07:53:34;28.92;31.41
71396;DHT22;59888;55.814;37.132;2022-08-19T07:56:01;28.93;31.31
71396;DHT22;59888;55.814;37.132;2022-08-19T07:58:32;28.95;31.25
71396;DHT22;59888;55.814;37.132;2022-08-19T08:00:59;29.02;31.30
71396;DHT22;59888;55.814;37.132;2022-08-19T08:03:27;29.09;31.11
71396;DHT22;59888;55.814;37.132;2022-08-19T08:06:13;29.24;31.08
71396;DHT22;59888;55.814;37.132;2022-08-19T08:08:58;29.35;30.78
71396;DHT22;59888;55.814;37.132;2022-08-19T08:11:46;29.41;30.89
71396;DHT22;59888;55.814;37.132;2022-08-19T08:16:52;29.56;30.67
71396;DHT22;59888;55.814;37.132;2022-08-19T08:19:22;29.61;30.67
71396;DHT22;59888;55.814;37.132;2022-08-19T08:21:49;29.68;30.55
71396;DHT22;59888;55.814;37.132;2022-08-19T08:24:16;29.76;30.46
71396;DHT22;59888;55.814;37.132;2022-08-19T08:26:43;29.80;30.47
71396;DHT22;59888;55.814;37.132;2022-08-19T08:29:12;29.85;30.31
71396;DHT22;59888;55.814;37.132;2022-08-19T08:31:40;29.87;30.19
71396;DHT22;59888;55.814;37.132;2022-08-19T08:34:07;29.92;30.13
71396;DHT22;59888;55.814;37.132;2022-08-19T08:36:40;29.95;29.62
71396;DHT22;59888;55.814;37.132;2022-08-19T08:39:15;29.93;29.04
71396;DHT22;59888;55.814;37.132;2022-08-19T08:41:58;29.85;28.74
71396;DHT22;59888;55.814;37.132;2022-08-19T08:47:17;29.66;27.89
71396;DHT22;59888;55.814;37.132;2022-08-19T08:50:02;29.62;28.00
71396;DHT22;59888;55.814;37.132;2022-08-19T08:52:32;29.54;28.21
71396;DHT22;59888;55.814;37.132;2022-08-19T08:55:08;29.45;28.01
71396;DHT22;59888;55.814;37.132;2022-08-19T09:00:18;29.33;28.27
71396;DHT22;59888;55.814;37.132;2022-08-19T09:02:44;29.24;28.45
71396;DHT22;59888;55.814;37.132;2022-08-19T09:05:11;29.26;28.54
71396;DHT22;59888;55.814;37.132;2022-08-19T09:07:56;29.34;28.65
71396;DHT22;59888;55.814;37.132;2022-08-19T09:10:29;29.41;28.54
71396;DHT22;59888;55.814;37.132;2022-08-19T09:13:31;29.43;28.70
71396;DHT22;59888;55.814;37.132;2022-08-19T09:16:14;29.44;28.50
71396;DHT22;59888;55.814;37.132;2022-08-19T09:18:48;29.50;28.56
71396;DHT22;59888;55.814;37.132;2022-08-19T09:21:16;29.64;28.50
71396;DHT22;59888;55.814;37.132;2022-08-19T09:23:42;29.81;28.36
71396;DHT22;59888;55.814;37.132;2022-08-19T09:26:10;29.97;28.00
71396;DHT22;59888;55.814;37.132;2022-08-19T09:28:41;30.04;27.88
71396;DHT22;59888;55.814;37.132;2022-08-19T09:31:10;30.08;27.81
71396;DHT22;59888;55.814;37.132;2022-08-19T09:33:36;30.21;27.81
71396;DHT22;59888;55.814;37.132;2022-08-19T09:36:08;30.32;27.68
71396;DHT22;59888;55.814;37.132;2022-08-19T09:38:35;30.47;27.61
71396;DHT22;59888;55.814;37.132;2022-08-19T09:41:04;30.55;27.33
71396;DHT22;59888;55.814;37.132;2022-08-19T09:43:31;30.56;27.41
71396;DHT22;59888;55.814;37.132;2022-08-19T09:45:57;30.55;27.16
71396;DHT22;59888;55.814;37.132;2022-08-19T09:48:23;30.56;27.30
71396;DHT22;59888;55.814;37.132;2022-08-19T09:50:49;30.59;27.29
71396;DHT22;59888;55.814;37.132;2022-08-19T09:53:16;30.65;27.25
71396;DHT22;59888;55.814;37.132;2022-08-19T09:55:43;30.71;27.26
71396;DHT22;59888;55.814;37.132;2022-08-19T09:58:09;30.76;27.14
71396;DHT22;59888;55.814;37.132;2022-08-19T10:00:37;30.76;26.89
71396;DHT22;59888;55.814;37.132;2022-08-19T10:03:03;30.80;26.77
71396;DHT22;59888;55.814;37.132;2022-08-19T10:05:29;30.76;26.78
71396;DHT22;59888;55.814;37.132;2022-08-19T10:08:15;30.77;26.43
71396;DHT22;59888;55.814;37.132;2022-08-19T10:10:41;30.80;26.20
71396;DHT22;59888;55.814;37.132;2022-08-19T10:13:10;30.74;26.05
71396;DHT22;59888;55.814;37.132;2022-08-19T10:15:36;30.74;25.84
71396;DHT22;59888;55.814;37.132;2022-08-19T10:18:05;30.75;25.91
71396;DHT22;59888;55.814;37.132;2022-08-19T10:20:31;30.77;25.56
71396;DHT22;59888;55.814;37.132;2022-08-19T10:22:57;30.76;25.82
71396;DHT22;59888;55.814;37.132;2022-08-19T10:25:25;30.82;25.15
71396;DHT22;59888;55.814;37.132;2022-08-19T10:27:52;30.85;25.27
71396;DHT22;59888;55.814;37.132;2022-08-19T10:30:18;30.79;24.81
71396;DHT22;59888;55.814;37.132;2022-08-19T10:32:44;30.74;24.86
71396;DHT22;59888;55.814;37.132;2022-08-19T10:35:12;30.69;25.24
71396;DHT22;59888;55.814;37.132;2022-08-19T10:37:39;30.69;25.39
71396;DHT22;59888;55.814;37.132;2022-08-19T10:40:06;30.74;25.12
71396;DHT22;59888;55.814;37.132;2022-08-19T10:42:34;30.71;24.91
71396;DHT22;59888;55.814;37.132;2022-08-19T10:45:00;30.69;24.73
71396;DHT22;59888;55.814;37.132;2022-08-19T10:47:26;30.63;24.86
71396;DHT22;59888;55.814;37.132;2022-08-19T10:49:53;30.70;24.39
71396;DHT22;59888;55.814;37.132;2022-08-19T10:52:44;30.75;24.12
71396;DHT22;59888;55.814;37.132;2022-08-19T10:55:10;30.83;24.43
71396;DHT22;59888;55.814;37.132;2022-08-19T10:57:55;30.92;23.83
71396;DHT22;59888;55.814;37.132;2022-08-19T11:00:23;30.89;23.46
71396;DHT22;59888;55.814;37.132;2022-08-19T11:02:50;30.91;23.80
71396;DHT22;59888;55.814;37.132;2022-08-19T11:05:16;30.91;23.62
71396;DHT22;59888;55.814;37.132;2022-08-19T11:07:43;30.89;23.69
71396;DHT22;59888;55.814;37.132;2022-08-19T11:10:12;30.82;23.59
71396;DHT22;59888;55.814;37.132;2022-08-19T11:12:40;30.79;23.62
71396;DHT22;59888;55.814;37.132;2022-08-19T11:15:07;30.81;23.81
71396;DHT22;59888;55.814;37.132;2022-08-19T11:17:34;30.68;23.53
71396;DHT22;59888;55.814;37.132;2022-08-19T11:20:02;30.56;23.47
71396;DHT22;59888;55.814;37.132;2022-08-19T11:22:30;30.54;23.60
71396;DHT22;59888;55.814;37.132;2022-08-19T11:24:56;30.51;23.58
71396;DHT22;59888;55.814;37.132;2022-08-19T11:27:22;30.55;23.92
71396;DHT22;59888;55.814;37.132;2022-08-19T11:29:48;30.60;23.96
71396;DHT22;59888;55.814;37.132;2022-08-19T11:32:13;30.62;23.56
71396;DHT22;59888;55.814;37.132;2022-08-19T11:34:41;30.68;23.56
71396;DHT22;59888;55.814;37.132;2022-08-19T11:37:07;30.68;22.63
71396;DHT22;59888;55.814;37.132;2022-08-19T11:39:35;30.67;22.67
71396;DHT22;59888;55.814;37.132;2022-08-19T11:42:04;30.69;22.60
71396;DHT22;59888;55.814;37.132;2022-08-19T11:44:53;30.67;21.69
71396;DHT22;59888;55.814;37.132;2022-08-19T11:47:19;30.64;21.12
71396;DHT22;59888;55.814;37.132;2022-08-19T11:49:46;30.65;21.36
71396;DHT22;59888;55.814;37.132;2022-08-19T11:52:12;30.66;20.99
71396;DHT22;59888;55.814;37.132;2022-08-19T11:54:38;30.70;21.14
71396;DHT22;59888;55.814;37.132;2022-08-19T11:57:04;30.77;20.89
71396;DHT22;59888;55.814;37.132;2022-08-19T11:59:30;30.91;20.26
71396;DHT22;59888;55.814;37.132;2022-08-19T12:01:56;30.95;20.63
71396;DHT22;59888;55.814;37.132;2022-08-19T12:04:22;31.00;20.46
71396;DHT22;59888;55.814;37.132;2022-08-19T12:06:48;31.04;20.27
71396;DHT22;59888;55.814;37.132;2022-08-19T12:09:15;31.11;20.71
71396;DHT22;59888;55.814;37.132;2022-08-19T12:11:43;31.11;20.47
71396;DHT22;59888;55.814;37.132;2022-08-19T12:14:11;31.11;19.43
71396;DHT22;59888;55.814;37.132;2022-08-19T12:16:37;31.20;19.89
71396;DHT22;59888;55.814;37.132;2022-08-19T12:19:04;31.29;19.97
71396;DHT22;59888;55.814;37.132;2022-08-19T12:21:32;31.38;20.02
71396;DHT22;59888;55.814;37.132;2022-08-19T12:24:00;31.44;20.09
71396;DHT22;59888;55.814;37.132;2022-08-19T12:26:27;31.52;19.75
71396;DHT22;59888;55.814;37.132;2022-08-19T12:28:54;31.57;19.25
71396;DHT22;59888;55.814;37.132;2022-08-19T12:31:20;31.59;19.17
71396;DHT22;59888;55.814;37.132;2022-08-19T12:33:47;31.59;19.98
71396;DHT22;59888;55.814;37.132;2022-08-19T12:36:14;31.67;19.91
71396;DHT22;59888;55.814;37.132;2022-08-19T12:38:41;31.87;19.89
71396;DHT22;59888;55.814;37.132;2022-08-19T12:41:10;32.09;19.70
71396;DHT22;59888;55.814;37.132;2022-08-19T12:43:37;32.20;19.56
71396;DHT22;59888;55.814;37.132;2022-08-19T12:46:04;32.45;19.63
71396;DHT22;59888;55.814;37.132;2022-08-19T12:48:34;32.85;19.76
71396;DHT22;59888;55.814;37.132;2022-08-19T12:51:00;33.56;19.08
71396;DHT22;59888;55.814;37.132;2022-08-19T12:53:27;34.68;18.78
71396;DHT22;59888;55.814;37.132;2022-08-19T12:55:57;36.31;17.45
71396;DHT22;59888;55.814;37.132;2022-08-19T12:58:25;37.99;17.83
71396;DHT22;59888;55.814;37.132;2022-08-19T13:00:52;39.13;16.42
71396;DHT22;59888;55.814;37.132;2022-08-19T13:03:18;40.40;16.46
71396;DHT22;59888;55.814;37.132;2022-08-19T13:05:44;41.39;15.62
71396;DHT22;59888;55.814;37.132;2022-08-19T13:08:10;41.85;14.86
71396;DHT22;59888;55.814;37.132;2022-08-19T13:10:37;42.49;14.56
71396;DHT22;59888;55.814;37.132;2022-08-19T13:13:07;42.99;13.78
71396;DHT22;59888;55.814;37.132;2022-08-19T13:15:35;43.13;13.87
71396;DHT22;59888;55.814;37.132;2022-08-19T13:18:01;43.20;14.05
71396;DHT22;59888;55.814;37.132;2022-08-19T13:20:27;43.29;14.35
71396;DHT22;59888;55.814;37.132;2022-08-19T13:22:53;43.22;13.94
71396;DHT22;59888;55.814;37.132;2022-08-19T13:25:19;42.67;13.45
71396;DHT22;59888;55.814;37.132;2022-08-19T13:27:49;42.35;13.39
71396;DHT22;59888;55.814;37.132;2022-08-19T13:30:17;42.29;13.89
71396;DHT22;59888;55.814;37.132;2022-08-19T13:33:02;42.40;14.67
71396;DHT22;59888;55.814;37.132;2022-08-19T13:35:45;43.03;13.32
71396;DHT22;59888;55.814;37.132;2022-08-19T13:38:13;43.33;14.44
71396;DHT22;59888;55.814;37.132;2022-08-19T13:40:40;42.96;12.95
71396;DHT22;59888;55.814;37.132;2022-08-19T13:43:06;42.23;13.34
71396;DHT22;59888;55.814;37.132;2022-08-19T13:45:33;41.88;14.51
71396;DHT22;59888;55.814;37.132;2022-08-19T13:48:00;41.96;14.87
71396;DHT22;59888;55.814;37.132;2022-08-19T13:50:29;42.04;14.31
71396;DHT22;59888;55.814;37.132;2022-08-19T13:52:57;41.09;13.97
71396;DHT22;59888;55.814;37.132;2022-08-19T13:55:23;40.60;14.47
71396;DHT22;59888;55.814;37.132;2022-08-19T13:57:54;39.73;15.30
71396;DHT22;59888;55.814;37.132;2022-08-19T14:00:22;38.92;14.66
71396;DHT22;59888;55.814;37.132;2022-08-19T14:02:51;37.93;15.43
71396;DHT22;59888;55.814;37.132;2022-08-19T14:05:18;37.07;16.16
71396;DHT22;59888;55.814;37.132;2022-08-19T14:07:44;36.29;16.51
71396;DHT22;59888;55.814;37.132;2022-08-19T14:10:11;35.57;17.09
71396;DHT22;59888;55.814;37.132;2022-08-19T14:12:38;35.01;17.38
71396;DHT22;59888;55.814;37.132;2022-08-19T14:15:06;34.47;18.22
71396;DHT22;59888;55.814;37.132;2022-08-19T14:17:32;33.86;18.63
71396;DHT22;59888;55.814;37.132;2022-08-19T14:20:05;33.19;18.83
71396;DHT22;59888;55.814;37.132;2022-08-19T14:22:37;32.68;19.40
71396;DHT22;59888;55.814;37.132;2022-08-19T14:25:06;32.27;19.93
71396;DHT22;59888;55.814;37.132;2022-08-19T14:27:34;31.93;20.27
71396;DHT22;59888;55.814;37.132;2022-08-19T14:30:00;31.52;20.66
71396;DHT22;59888;55.814;37.132;2022-08-19T14:32:29;31.21;21.08
71396;DHT22;59888;55.814;37.132;2022-08-19T14:34:55;30.95;21.31
71396;DHT22;59888;55.814;37.132;2022-08-19T14:37:21;30.67;21.76
71396;DHT22;59888;55.814;37.132;2022-08-19T14:39:50;30.44;21.85
71396;DHT22;59888;55.814;37.132;2022-08-19T14:42:16;30.26;22.11
71396;DHT22;59888;55.814;37.132;2022-08-19T14:44:42;30.12;22.26
71396;DHT22;59888;55.814;37.132;2022-08-19T14:47:09;30.01;22.52
71396;DHT22;59888;55.814;37.132;2022-08-19T14:49:35;29.88;22.76
71396;DHT22;59888;55.814;37.132;2022-08-19T14:52:01;29.76;22.91
71396;DHT22;59888;55.814;37.132;2022-08-19T14:54:28;29.65;23.01
71396;DHT22;59888;55.814;37.132;2022-08-19T14:56:54;29.54;23.22
71396;DHT22;59888;55.814;37.132;2022-08-19T14:59:20;29.52;23.27
71396;DHT22;59888;55.814;37.132;2022-08-19T15:01:46;29.53;23.50
71396;DHT22;59888;55.814;37.132;2022-08-19T15:04:12;29.62;23.48
71396;DHT22;59888;55.814;37.132;2022-08-19T15:06:38;29.73;23.43
71396;DHT22;59888;55.814;37.132;2022-08-19T15:09:05;29.71;23.50
71396;DHT22;59888;55.814;37.132;2022-08-19T15:11:31;29.76;23.53
71396;DHT22;59888;55.814;37.132;2022-08-19T15:13:58;29.77;23.50
71396;DHT22;59888;55.814;37.132;2022-08-19T15:16:25;29.74;23.66
71396;DHT22;59888;55.814;37.132;2022-08-19T15:18:54;29.75;23.53
71396;DHT22;59888;55.814;37.132;2022-08-19T15:21:23;29.61;23.77
71396;DHT22;59888;55.814;37.132;2022-08-19T15:23:50;29.49;23.84
71396;DHT22;59888;55.814;37.132;2022-08-19T15:26:17;29.36;23.92
71396;DHT22;59888;55.814;37.132;2022-08-19T15:28:44;29.27;24.09
71396;DHT22;59888;55.814;37.132;2022-08-19T15:31:10;29.18;24.26
71396;DHT22;59888;55.814;37.132;2022-08-19T15:33:38;29.09;24.30